Flight Track Log - Related Links

Times and Time Zones

All times are in EDT time to prevent confusion due to time zone crossing. See the AAY876 flight status page for this flight to view local times or setup timezone preferences in your user account.

Time Position Orientation Groundspeed Altitude Reporting Facility
EDT Latitude Longitude Course Direction KTS MPH feet Rate Location/Type
Tue 02:48:16 PM 27.9167 -82.6833 350° North 146 168 700  Level Tampa TRACON
Tue 02:49:28 PM 27.9833 -82.6667 12° North 202 232 2,800 1,952 Climbing Tampa TRACON
Tue 02:50:22 PM 28.0333 -82.6833 344° North 256 295 4,800 1,750 Climbing Tampa TRACON
Tue 02:51:28 PM 28.1167 -82.6833 360° North 267 307 6,300 1,984 Climbing Tampa TRACON
Tue 02:52:00 PM 28.5085 -82.8105 348° North  Level FlightAware Approximate
Tue 02:53:00 PM 28.6100 -82.8320 350° North  Level FlightAware Approximate
Tue 02:54:39 PM 28.3731 -82.7392 349° North 329 379 13,300  Level Jacksonville Center
Tue 02:55:39 PM 28.4711 -82.7628 348° North 340 391 16,100 2,550 Climbing Jacksonville Center
Tue 02:56:39 PM 28.5653 -82.7861 348° North 340 391 18,400 2,100 Climbing Jacksonville Center
Tue 02:57:39 PM 28.6653 -82.8122 347° North 350 403 20,300 1,700 Climbing Jacksonville Center
Tue 02:58:39 PM 28.7550 -82.8333 348° North 356 410 21,800 1,850 Climbing Jacksonville Center
Tue 02:59:39 PM 28.8553 -82.8736 341° North 366 421 24,000 1,900 Climbing Jacksonville Center
Tue 03:00:39 PM 28.9556 -82.9117 342° North 371 427 25,600 1,600 Climbing Jacksonville Center
Tue 03:01:39 PM 29.0578 -82.9519 341° North 376 433 27,200 1,350 Climbing Jacksonville Center
Tue 03:02:39 PM 29.1600 -82.9947 340° North 381 438 28,300 1,200 Climbing Jacksonville Center
Tue 03:03:39 PM 29.2664 -83.0353 342° North 391 450 29,600 850 Climbing Jacksonville Center
Tue 03:04:39 PM 29.3728 -83.0783 341° North 396 456 30,000 200 Climbing Jacksonville Center
Tue 03:05:39 PM 29.4939 -83.1311 339° North 409 471 30,000  Level Jacksonville Center
Tue 03:06:39 PM 29.6003 -83.1719 342° North 408 470 30,000  Level Jacksonville Center
Tue 03:07:39 PM 29.7086 -83.2153 341° North 408 470 30,000  Level Jacksonville Center
Tue 03:08:39 PM 29.8150 -83.2589 340° North 408 470 30,000  Level Jacksonville Center
Tue 03:09:39 PM 29.9256 -83.3025 341° North 408 470 30,000  Level Jacksonville Center
Tue 03:10:39 PM 30.0297 -83.3436 341° North 408 470 30,000 300 Level Jacksonville Center
Tue 03:11:39 PM 30.1383 -83.3875 341° North 408 470 30,600 800 Climbing Jacksonville Center
Tue 03:12:39 PM 30.2486 -83.4311 341° North 408 470 31,600 1,150 Climbing Jacksonville Center
Tue 03:13:39 PM 30.3550 -83.4750 340° North 408 470 32,900 1,150 Climbing Jacksonville Center
Tue 03:14:39 PM 30.4611 -83.5192 340° North 408 470 33,900 1,050 Climbing Jacksonville Center
Tue 03:15:39 PM 30.5656 -83.5608 341° North 408 470 35,000 1,000 Climbing Jacksonville Center
Tue 03:16:39 PM 30.6550 -83.5978 340° North 396 456 35,900 500 Climbing Jacksonville Center
Tue 03:17:39 PM 30.7572 -83.6394 341° North 390 449 36,000 50 Climbing Jacksonville Center
Tue 03:18:39 PM 30.8611 -83.6839 340° North 390 449 36,000  Level Jacksonville Center
Tue 03:19:39 PM 30.9592 -83.7236 341° North 385 443 36,000  Level Jacksonville Center
Tue 03:20:39 PM 31.0611 -83.7656 341° North 385 443 36,000  Level Jacksonville Center
Tue 03:21:39 PM 31.1611 -83.8078 340° North 385 443 36,000  Level Jacksonville Center
Tue 03:22:39 PM 31.2608 -83.8500 340° North 385 443 36,000 31 Level Jacksonville Center
Tue 03:24:53 PM 31.4919 -83.9489 340° North 398 458 36,100  Climbing Atlanta Center
Tue 03:25:53 PM 31.6006 -83.9778 347° North 393 452 36,000 -50 Descending Atlanta Center
Tue 03:26:53 PM 31.7092 -84.0022 349° North 393 452 36,000  Level Atlanta Center
Tue 03:27:53 PM 31.8217 -84.0267 350° North 393 452 36,000 50 Level Atlanta Center
Tue 03:28:53 PM 31.9408 -84.0511 350° North 393 452 36,100  Climbing Atlanta Center
Tue 03:29:53 PM 32.0492 -84.0756 349° North 393 452 36,000 -50 Descending Atlanta Center
Tue 03:30:53 PM 32.1536 -84.1003 349° North 388 447 36,000  Level Atlanta Center
Tue 03:31:53 PM 32.2622 -84.1247 349° North 393 452 36,000  Level Atlanta Center
Tue 03:32:53 PM 32.3686 -84.1494 349° North 393 452 36,000  Level Atlanta Center
Tue 03:33:53 PM 32.4769 -84.1719 350° North 393 452 36,000  Level Atlanta Center
Tue 03:34:53 PM 32.5836 -84.1967 349° North 393 452 36,000  Level Atlanta Center
Tue 03:35:53 PM 32.6919 -84.2214 349° North 393 452 36,000  Level Atlanta Center
Tue 03:36:53 PM 32.7797 -84.2414 349° North 393 452 36,000  Level Atlanta Center
Tue 03:37:53 PM 32.9006 -84.2739 347° North 393 452 36,000  Level Atlanta Center
Tue 03:38:53 PM 33.0092 -84.2989 349° North 393 452 36,000 -50 Level Atlanta Center
Tue 03:39:53 PM 33.1156 -84.3242 349° North 388 447 35,900  Descending Atlanta Center
Tue 03:40:53 PM 33.2197 -84.3467 350° North 388 447 36,000 50 Climbing Atlanta Center
Tue 03:41:53 PM 33.3261 -84.3694 350° North 388 447 36,000 17 Level Atlanta Center
Tue 03:46:36 PM 33.9247 -84.5066 348° North 394 453 36,100 19 Climbing FlightAware ADS-B (KDZJ)
Tue 03:47:17 PM 34.0000 -84.5249 349° North 396 456 36,100 -73 Level FlightAware ADS-B (KDZJ)
Tue 03:47:58 PM 34.0752 -84.5431 348° North 397 457 36,000 -74 Descending FlightAware ADS-B (KDZJ)
Tue 03:48:38 PM 34.1484 -84.5609 348° North 397 457 36,000  Level FlightAware ADS-B (KDZJ)
Tue 03:49:19 PM 34.2235 -84.5793 348° North 408 470 36,000  Level FlightAware ADS-B (KDZJ)
Tue 03:49:58 PM 34.2979 -84.5976 348° North 409 471 36,000  Level FlightAware ADS-B (KDZJ)
Tue 03:50:38 PM 34.3744 -84.6162 349° North 410 472 36,000 75 Level FlightAware ADS-B (KDZJ)
Tue 03:51:18 PM 34.4495 -84.6343 349° North 410 472 36,100 75 Climbing FlightAware ADS-B (KDZJ)
Tue 03:51:58 PM 34.5247 -84.6527 348° North 409 471 36,100 -60 Level FlightAware ADS-B (KDZJ)
Tue 03:52:58 PM 34.6386 -84.6808 348° North 412 474 36,000 -60 Descending FlightAware ADS-B (KDZJ)
Tue 03:53:38 PM 34.7133 -84.6994 349° North 409 471 36,000  Level FlightAware ADS-B (KDZJ)
Tue 03:54:19 PM 34.7884 -84.7180 349° North 407 468 36,000  Level FlightAware ADS-B (KDZJ)
Tue 03:54:58 PM 34.8619 -84.7363 348° North 399 459 36,000 76 Level FlightAware ADS-B (KDZJ)
Tue 03:55:38 PM 34.9338 -84.7540 348° North 393 452 36,100  Climbing FlightAware ADS-B (KDZJ)
Tue 03:56:18 PM 35.0070 -84.7722 348° North 397 457 36,000  Descending FlightAware ADS-B (KDZJ)
Tue 03:56:58 PM 35.0783 -84.7901 348° North 393 452 36,100  Climbing FlightAware ADS-B (KDZJ)
Tue 03:58:56 PM 35.2059 -84.8222 348° North 391 450 36,000 -38 Descending FlightAware ADS-B (KMDQ)
Tue 03:59:36 PM 35.2707 -84.8387 348° North 392 451 36,000  Level FlightAware ADS-B (KMDQ)
Tue 04:00:16 PM 35.3439 -84.8571 349° North 392 451 36,000  Level FlightAware ADS-B (KMDQ)
Tue 04:00:57 PM 35.4182 -84.8759 348° North 393 452 36,000  Level FlightAware ADS-B (KMDQ)
Tue 04:01:33 PM 35.4768 -84.8907 348° North 394 453 36,000  Level FlightAware ADS-B (KMDQ)
Tue 04:02:37 PM 35.5980 -84.9213 348° North 393 452 36,000  Level FlightAware ADS-B (KMDQ)
Tue 04:03:16 PM 35.6623 -84.9376 348° North 397 457 36,000 78 Level FlightAware ADS-B (KMDQ)
Tue 04:03:54 PM 35.7299 -84.9547 349° North 398 458 36,100 75 Climbing FlightAware ADS-B (KMDQ)
Tue 04:04:36 PM 35.8111 -84.9755 348° North 396 456 36,100 -59 Level FlightAware ADS-B (KMDQ)
Tue 04:05:36 PM 35.9003 -84.9983 348° North 396 456 36,000 -60 Descending FlightAware ADS-B (KMDQ)
Tue 04:06:16 PM 35.9880 -85.0206 348° North 397 457 36,000  Level FlightAware ADS-B (KMDQ)
Tue 04:06:56 PM 36.0404 -85.0341 348° North 398 458 36,000  Level FlightAware ADS-B (KMDQ)
Tue 04:07:36 PM 36.1378 -85.0587 348° North 399 459 36,000  Level FlightAware ADS-B (KMDQ)
Tue 04:08:16 PM 36.2027 -85.0755 348° North 401 461 36,000  Level FlightAware ADS-B (KMDQ)
Tue 04:08:56 PM 36.2808 -85.0956 348° North 403 464 36,000  Level FlightAware ADS-B (KMDQ)
Tue 04:09:36 PM 36.3553 -85.1149 348° North 404 465 36,000  Level FlightAware ADS-B (KMDQ)
Tue 04:10:17 PM 36.4298 -85.1339 348° North 404 465 36,000  Level FlightAware ADS-B (KMDQ)
Tue 04:10:56 PM 36.4958 -85.1511 348° North 403 464 36,000  Level FlightAware ADS-B (KMDQ)
Tue 04:11:34 PM 36.5140 -85.1558 348° North 403 464 36,000  Level FlightAware ADS-B (KMDQ)
Tue 04:12:13 PM 36.6464 -85.1902 348° North 402 463 36,000 76 Level FlightAware ADS-B (EPWR / WRO)
Tue 04:12:53 PM 36.7169 -85.2087 348° North 400 460 36,100  Climbing FlightAware ADS-B (EPWR / WRO)
Tue 04:13:37 PM 36.7978 -85.2299 348° North 398 458 36,000 -81 Descending FlightAware ADS-B (EPWR / WRO)
Tue 04:14:07 PM 36.8467 -85.2427 348° North 397 457 36,000  Level FlightAware ADS-B (EPWR / WRO)
Tue 04:14:38 PM 36.9070 -85.2586 348° North 397 457 36,000  Level FlightAware ADS-B (EPWR / WRO)
Tue 04:15:22 PM 36.9878 -85.2798 348° North 396 456 36,000  Level FlightAware ADS-B (EPWR / WRO)
Tue 04:15:53 PM 37.0358 -85.2922 348° North 398 458 36,000  Level FlightAware ADS-B (EPWR / WRO)
Tue 04:16:23 PM 37.0890 -85.3062 348° North 399 459 36,000  Level FlightAware ADS-B (EPWR / WRO)
Tue 04:16:54 PM 37.1488 -85.3218 348° North 400 460 36,000  Level FlightAware ADS-B (EPWR / WRO)
Tue 04:17:53 PM 37.2597 -85.3511 348° North 404 465 36,000  Level FlightAware ADS-B (EPWR / WRO)
Tue 04:18:24 PM 37.3171 -85.3663 348° North 405 466 36,000 79 Level FlightAware ADS-B (EPWR / WRO)
Tue 04:19:09 PM 37.3986 -85.3883 348° North 404 465 36,100 67 Climbing FlightAware ADS-B (EPWR / WRO)
Tue 04:19:53 PM 37.4711 -85.4075 349° North 400 460 36,100  Level FlightAware ADS-B (EPWR / WRO)
Tue 04:20:34 PM 37.5549 -85.4293 348° North 397 457 36,100 -79 Level FlightAware ADS-B
Tue 04:21:09 PM 37.6170 -85.4461 348° North 395 455 36,000 -92 Descending FlightAware ADS-B (EPWR / WRO)
Tue 04:21:39 PM 37.6700 -85.4604 348° North 394 453 36,000  Level FlightAware ADS-B (EPWR / WRO)
Tue 04:22:21 PM 37.7443 -85.4804 348° North 393 452 36,000  Level FlightAware ADS-B (EPWR / WRO)
Tue 04:22:54 PM 37.8027 -85.4962 348° North 392 451 36,000  Level FlightAware ADS-B (EPWR / WRO)
Tue 04:23:24 PM 37.8563 -85.5106 348° North 393 452 36,000  Level FlightAware ADS-B (EPWR / WRO)
Tue 04:24:08 PM 37.9334 -85.5314 348° North 393 452 36,000  Level FlightAware ADS-B (EPWR / WRO)
Tue 04:24:38 PM 37.9897 -85.5463 348° North 395 455 36,000  Level FlightAware ADS-B (EPWR / WRO)
Tue 04:25:09 PM 38.0431 -85.5609 348° North 395 455 36,000  Level FlightAware ADS-B (EPWR / WRO)
Tue 04:25:53 PM 38.1200 -85.5880 339° North 387 445 36,000  Level FlightAware ADS-B (EPWR / WRO)
Tue 04:26:23 PM 38.1705 -85.6165 335° Northwest 383 441 36,000  Level FlightAware ADS-B (EPWR / WRO)
Tue 04:26:53 PM 38.2191 -85.6452 335° Northwest 383 441 36,000  Level FlightAware ADS-B (EPWR / WRO)
Tue 04:27:23 PM 38.2445 -85.6600 335° Northwest 383 441 36,000  Level FlightAware ADS-B (EPWR / WRO)
Tue 04:28:34 PM 38.3821 -85.7408 335° Northwest 383 441 36,000  Level FlightAware ADS-B
Tue 04:29:34 PM 38.4784 -85.7978 335° Northwest 383 441 36,000  Level FlightAware ADS-B
Tue 04:30:32 PM 38.5712 -85.8528 335° Northwest 383 441 36,000  Level FlightAware ADS-B
Tue 04:31:34 PM 38.6680 -85.9105 335° Northwest 385 443 36,000  Level FlightAware ADS-B
Tue 04:32:35 PM 38.7705 -85.9717 335° Northwest 387 445 36,000  Level FlightAware ADS-B
Tue 04:33:33 PM 38.8644 -86.0279 335° Northwest 387 445 36,000  Level FlightAware ADS-B
Tue 04:34:13 PM 38.9291 -86.0668 335° Northwest 388 447 36,000  Level FlightAware ADS-B
Tue 04:35:34 PM 39.0548 -86.1422 335° Northwest 388 447 36,000  Level FlightAware ADS-B
Tue 04:36:28 PM 39.1480 -86.1984 335° Northwest 387 445 36,000  Level FlightAware ADS-B
Tue 04:37:30 PM 39.2492 -86.2596 335° Northwest 383 441 36,000  Level FlightAware ADS-B
Tue 04:38:18 PM 39.2234 -86.2440 335° Northwest 384 442 36,000  Level FlightAware ADS-B
Tue 04:38:59 PM 39.1480 -86.1984 335° Northwest 383 441 36,000  Level FlightAware ADS-B
Tue 04:39:38 PM 39.2234 -86.2440 335° Northwest 382 440 36,000  Level FlightAware ADS-B
Tue 04:42:17 PM 39.2234 -86.2440 329° Northwest 378 435 36,000  Level FlightAware ADS-B
Tue 04:47:17 PM 40.1337 -86.9395 324° Northwest 380 437 36,000  Level FlightAware ADS-B
Tue 04:48:08 PM 40.2058 -87.0081 324° Northwest 380 437 36,000  Level FlightAware ADS-B
Tue 04:48:51 PM 40.2451 -87.0456 324° Northwest 379 436 36,000  Level FlightAware ADS-B
Tue 04:49:29 PM 40.3146 -87.1118 324° Northwest 378 435 36,000  Level FlightAware ADS-B
Tue 04:50:03 PM 40.3687 -87.1638 324° Northwest 377 434 36,000  Level FlightAware ADS-B
Tue 04:50:39 PM 40.4167 -87.2096 324° Northwest 374 430 36,000  Level FlightAware ADS-B
Tue 04:51:19 PM 40.4744 -87.2651 324° Northwest 373 429 36,000  Level FlightAware ADS-B
Tue 04:51:49 PM 40.5173 -87.3066 324° Northwest 371 427 36,000 -95 Level FlightAware ADS-B
Tue 04:52:22 PM 40.5476 -87.3357 324° Northwest 371 427 35,900 -435 Descending FlightAware ADS-B
Tue 04:52:58 PM 40.6131 -87.3987 324° Northwest 371 427 35,500 -727 Descending FlightAware ADS-B
Tue 04:53:28 PM 40.6533 -87.4376 324° Northwest 369 425 35,100 -900 Descending FlightAware ADS-B
Tue 04:53:58 PM 40.6947 -87.4777 324° Northwest 370 426 34,600 -984 Descending FlightAware ADS-B
Tue 04:54:29 PM 40.7371 -87.5189 323° Northwest 366 421 34,100 -984 Descending FlightAware ADS-B
Tue 04:54:59 PM 40.7720 -87.5529 324° Northwest 365 420 33,600 -1,000 Descending FlightAware ADS-B
Tue 04:55:29 PM 40.8185 -87.5984 324° Northwest 359 413 33,100 -985 Descending FlightAware ADS-B
Tue 04:56:06 PM 40.8680 -87.6466 323° Northwest 357 411 32,500 -971 Descending FlightAware ADS-B
Tue 04:56:37 PM 40.8785 -87.6569 323° Northwest 357 411 32,000 -952 Descending FlightAware ADS-B
Tue 04:57:09 PM 40.9504 -87.7275 324° Northwest 351 404 31,500 -968 Descending FlightAware ADS-B
Tue 04:57:39 PM 40.9895 -87.7658 324° Northwest 345 397 31,000 -943 Descending FlightAware ADS-B
Tue 04:58:19 PM 41.0404 -87.8155 323° Northwest 334 384 30,400 -975 Descending FlightAware ADS-B
Tue 04:58:59 PM 41.0889 -87.8633 323° Northwest 328 377 29,700 -1,200 Descending FlightAware ADS-B
Tue 04:59:29 PM 41.1246 -87.8987 323° Northwest 323 372 29,000 -1,200 Descending FlightAware ADS-B
Tue 04:59:59 PM 41.1619 -87.9358 323° Northwest 324 373 28,500 -1,000 Descending FlightAware ADS-B
Tue 05:00:29 PM 41.1967 -87.9702 323° Northwest 320 368 28,000 -947 Descending FlightAware ADS-B
Tue 05:00:56 PM 41.2215 -88.0141 295° West 324 373 27,600 -885 Descending FlightAware ADS-B
Tue 05:01:30 PM 41.2309 -88.0397 297° West 320 368 27,100 -986 Descending FlightAware ADS-B
Tue 05:02:09 PM 41.2695 -88.1418 297° West 316 364 26,400 -957 Descending FlightAware ADS-B
Tue 05:02:39 PM 41.2892 -88.1932 297° West 314 361 26,000 -943 Descending FlightAware ADS-B
Tue 05:03:19 PM 41.3153 -88.2618 297° West 307 353 25,300 -987 Descending FlightAware ADS-B
Tue 05:03:58 PM 41.3402 -88.3276 297° West 306 352 24,700 -987 Descending FlightAware ADS-B
Tue 05:04:38 PM 41.3644 -88.3917 297° West 301 346 24,000 -1,014 Descending FlightAware ADS-B
Tue 05:05:09 PM 41.3846 -88.4453 297° West 297 342 23,500 -930 Descending FlightAware ADS-B
Tue 05:05:49 PM 41.4039 -88.4967 297° West 296 341 22,900 -987 Descending FlightAware ADS-B
Tue 05:06:28 PM 41.4324 -88.5727 296° West 291 335 22,200 -911 Descending FlightAware ADS-B
Tue 05:07:08 PM 41.4574 -88.6390 297° West 308 354 21,700 -2,160 Descending FlightAware ADS-B
Tue 05:07:43 PM 41.4725 -88.6792 297° West 327 376 19,500 -3,771 Descending FlightAware ADS-B
Tue 05:08:18 PM 41.5032 -88.7614 296° West 333 383 17,300 -3,545 Descending FlightAware ADS-B
Tue 05:08:49 PM 41.5256 -88.8218 296° West 339 390 15,600 -2,000 Descending FlightAware ADS-B
Tue 05:09:21 PM 41.5407 -88.8631 296° West 329 379 15,200 -1,031 Descending FlightAware ADS-B
Tue 05:09:53 PM 41.5680 -88.9369 296° West 299 344 14,500 -1,235 Descending FlightAware ADS-B
Tue 05:10:29 PM 41.5882 -88.9918 296° West 259 298 13,800 -1,184 Descending FlightAware ADS-B
Tue 05:11:09 PM 41.6093 -89.0487 296° West 252 290 13,000 -759 Descending FlightAware ADS-B
Tue 05:11:48 PM 41.6294 -89.1033 296° West 255 293 12,800 -132 Descending FlightAware ADS-B
Tue 05:12:40 PM 41.6559 -89.1750 296° West 236 272 12,800  Level FlightAware ADS-B
Tue 05:13:19 PM 41.6338 -89.1151 296° West 219 252 12,800 -1,119 Level FlightAware ADS-B
Tue 05:14:38 PM 41.7247 -89.2697 296° West 214 246 10,600 -2,000 Descending Chicago Center
Tue 05:15:40 PM 41.7961 -89.2294 23° Northeast 230 265 8,100 -1,694 Descending Chicago Center
Tue 05:16:42 PM 41.8478 -89.2028 21° North 207 238 7,100 -1,306 Descending Chicago Center
Tue 05:17:44 PM 41.8958 -89.1792 20° North 189 217 5,400 -1,500 Descending Chicago Center
Tue 05:18:46 PM 41.9492 -89.1503 22° Northeast 201 231 4,000 -1,113 Descending Chicago Center
Tue 05:19:48 PM 41.9989 -89.1228 22° Northeast 201 231 3,100 -629 Descending Chicago Center
Tue 05:20:50 PM 42.0464 -89.1086 12° North 193 222 2,700 -290 Descending Chicago Center
Tue 05:21:52 PM 42.0928 -89.1017 North 176 203 2,500 -194 Descending Chicago Center
Tue 05:23:00 PM 42.1833 -89.0833 20° North  Level FlightAware Approximate
Tue 05:30:00 PM 42.1954 -89.0972 20° North  Level Estimated

Login

Don't have an account? Register now (free) for customized features, flight alerts, and more!